Portada
METAR-TAF:

METAR-TAF

Aeropuertos :

Harbin, China

Aeropuerto Internacional de Harbin

latitud: 45-45N, longitud: 126-46E, altitud: 143 m

Observación

El informe se hizo hace 29 minutos, a las 15:00 UTC
Viento 2 kt con dirección variable
Temperatura -31°C
Humedad 75%
Presión 1024 hPa
Visibilidad: 8000 m

METAR: ZYHB 231500Z VRB01MPS 8000 NSC M31/M34 Q1024 NOSIG

Hora: 23:29 (15:29 UTC)

Pronóstico

El informe se hizo hace 6 horas y 23 minutos, a las 09:06 UTC
Pronóstico válido del 23 a las 12 UTC al 24 a las 12 UTC
Viento 8 kt del oeste-suroeste
Visibilidad: 6000 m
Nubes dispersas a una altura de 3000 ft

TAF: ZYHB 230906Z 2312/2412 25004MPS 6000 SCT030 TXM24/06Z TNM36/22Z

Observaciones y pronósticos meteorológicos de más de 4000 aeropuertos (mensajes METAR y TAF).

Los puntos amarillos y rojos representan las estaciones disponibles.

Ponga el ratón en el punto deseado para ver el nombre de la estación.

Haga clic para ver las observaciones y los pronósticos meteorológicos.

Para cambiar el mapa : haga clic en los botones verdes con una cruz de color negro para hacer un zoom, en el botón verde con un guión para alejar o en las flechas verdes para mapas adyacentes.


METAR-TAF: